createdAt,value
2019-02-24T00:01:44.650Z,3.73
2019-02-24T00:04:47.589Z,4.43
2019-02-24T00:07:50.555Z,3.90
2019-02-24T00:10:54.054Z,3.47
2019-02-24T00:13:57.272Z,4.20
2019-02-24T00:17:00.225Z,3.27
2019-02-24T00:20:03.238Z,3.37
2019-02-24T00:23:06.626Z,3.63
2019-02-24T00:26:10.163Z,3.87
2019-02-24T00:29:13.443Z,2.90
2019-02-24T00:32:16.747Z,3.00
2019-02-24T00:35:20.015Z,3.20
2019-02-24T00:38:23.285Z,2.93
2019-02-24T00:41:26.569Z,3.47
2019-02-24T00:44:29.776Z,3.20
2019-02-24T00:47:33.281Z,3.57
2019-02-24T00:50:36.229Z,2.80
2019-02-24T00:53:39.327Z,3.97
2019-02-24T00:56:42.650Z,2.70
2019-02-24T00:59:45.599Z,3.43
2019-02-24T01:02:48.940Z,3.33
2019-02-24T01:05:52.712Z,3.23
2019-02-24T01:08:55.686Z,2.90
2019-02-24T01:11:58.891Z,2.67
2019-02-24T01:15:02.120Z,3.80
2019-02-24T01:18:05.769Z,3.30
2019-02-24T01:21:09.764Z,3.53
2019-02-24T01:24:13.041Z,3.37
2019-02-24T01:27:15.982Z,2.90
2019-02-24T01:30:19.217Z,2.93
2019-02-24T01:33:22.436Z,3.17
2019-02-24T01:36:25.650Z,2.80
2019-02-24T01:39:29.512Z,2.83
2019-02-24T01:42:32.455Z,2.50
2019-02-24T01:45:35.950Z,2.70
2019-02-24T01:48:39.173Z,2.40
2019-02-24T01:51:42.432Z,2.23
2019-02-24T01:54:45.945Z,2.47
2019-02-24T01:57:49.448Z,2.70
2019-02-24T02:00:52.981Z,2.30
2019-02-24T02:03:56.358Z,2.63
2019-02-24T02:06:59.627Z,3.30
2019-02-24T02:10:02.768Z,2.60
2019-02-24T02:13:05.988Z,2.50
2019-02-24T02:16:08.956Z,2.73
2019-02-24T02:19:12.209Z,2.43
2019-02-24T02:22:15.494Z,2.57
2019-02-24T02:25:18.691Z,2.40
2019-02-24T02:28:22.813Z,2.67
2019-02-24T02:31:25.765Z,2.60
2019-02-24T02:34:29.303Z,2.90
2019-02-24T02:37:32.799Z,3.40
2019-02-24T02:40:36.017Z,3.00
2019-02-24T02:43:39.844Z,2.60
2019-02-24T02:46:43.417Z,2.53
2019-02-24T02:49:46.357Z,2.93
2019-02-24T02:52:49.882Z,2.90
2019-02-24T02:55:52.823Z,3.07
2019-02-24T02:58:55.782Z,2.90
2019-02-24T03:01:59.130Z,3.07
2019-02-24T03:05:02.280Z,2.33
2019-02-24T03:08:10.556Z,2.50
2019-02-24T03:11:14.314Z,3.07
2019-02-24T03:14:17.877Z,3.27
2019-02-24T03:17:21.092Z,2.13
2019-02-24T03:20:24.062Z,2.50
2019-02-24T03:23:27.270Z,3.00
2019-02-24T03:26:30.878Z,2.67
2019-02-24T03:29:34.096Z,2.57
2019-02-24T03:32:37.313Z,3.00
2019-02-24T03:35:41.963Z,2.67
2019-02-24T03:38:45.515Z,3.23
2019-02-24T03:41:49.018Z,2.47
2019-02-24T03:44:52.294Z,2.80
2019-02-24T03:47:55.756Z,2.50
2019-02-24T03:50:59.313Z,4.10
2019-02-24T03:54:02.588Z,3.70
2019-02-24T03:57:05.872Z,2.97
2019-02-24T04:00:09.561Z,3.30
2019-02-24T04:03:14.189Z,2.50
2019-02-24T04:06:17.518Z,2.83
2019-02-24T04:09:20.555Z,2.70
2019-02-24T04:12:24.061Z,4.60
2019-02-24T04:15:27.008Z,3.10
2019-02-24T04:18:30.548Z,2.33
2019-02-24T04:21:34.228Z,3.10
2019-02-24T04:24:37.485Z,2.30
2019-02-24T04:27:40.460Z,2.57
2019-02-24T04:30:44.020Z,2.53
2019-02-24T04:33:47.519Z,3.17
2019-02-24T04:36:50.759Z,2.13
2019-02-24T04:39:53.978Z,2.67
2019-02-24T04:42:58.646Z,2.20
2019-02-24T04:46:01.612Z,2.67
2019-02-24T04:49:04.547Z,2.87
2019-02-24T04:52:07.815Z,2.30
2019-02-24T04:55:10.759Z,2.13
2019-02-24T04:58:14.396Z,1.87
2019-02-24T05:01:17.721Z,2.40
2019-02-24T05:04:20.980Z,2.50
2019-02-24T05:07:24.878Z,2.77
2019-02-24T05:10:28.134Z,2.27
2019-02-24T05:13:31.983Z,2.80
2019-02-24T05:16:35.207Z,2.70
2019-02-24T05:19:38.538Z,2.30
2019-02-24T05:22:41.823Z,2.03
2019-02-24T05:25:44.775Z,2.07
2019-02-24T05:28:48.915Z,2.40
2019-02-24T05:31:52.402Z,2.00
2019-02-24T05:34:55.671Z,2.20
2019-02-24T05:37:58.648Z,2.40
2019-02-24T05:41:01.903Z,2.50
2019-02-24T05:44:05.223Z,2.60
2019-02-24T05:47:08.704Z,2.00
2019-02-24T05:50:11.669Z,2.37
2019-02-24T05:53:15.220Z,1.93
2019-02-24T05:56:18.579Z,2.33
2019-02-24T05:59:21.888Z,1.90
2019-02-24T06:02:25.153Z,2.40
2019-02-24T06:05:29.099Z,2.63
2019-02-24T06:08:32.082Z,2.37
2019-02-24T06:11:35.895Z,2.40
2019-02-24T06:14:39.858Z,1.97
2019-02-24T06:17:44.751Z,2.77
2019-02-24T06:20:48.371Z,2.30
2019-02-24T06:23:51.608Z,2.17
2019-02-24T06:26:55.133Z,2.73
2019-02-24T06:30:05.097Z,1.90
2019-02-24T06:33:04.360Z,2.60
2019-02-24T06:36:07.317Z,1.90
2019-02-24T06:39:10.813Z,2.27
2019-02-24T06:42:14.631Z,3.17
2019-02-24T06:45:17.964Z,2.17
2019-02-24T06:48:21.183Z,2.40
2019-02-24T06:51:24.457Z,2.10
2019-02-24T06:54:28.080Z,2.30
2019-02-24T06:57:31.681Z,2.70
2019-02-24T07:00:35.167Z,2.50
2019-02-24T07:03:38.236Z,2.70
2019-02-24T07:06:41.772Z,2.30
2019-02-24T07:09:44.760Z,1.70
2019-02-24T07:12:47.724Z,2.30
2019-02-24T07:15:50.949Z,2.53
2019-02-24T07:18:54.206Z,2.00
2019-02-24T07:21:57.694Z,2.30
2019-02-24T07:25:00.939Z,2.60
2019-02-24T07:28:03.892Z,3.20
2019-02-24T07:31:07.130Z,2.20
2019-02-24T07:34:10.129Z,2.57
2019-02-24T07:37:14.395Z,1.73
2019-02-24T07:40:17.662Z,1.80
2019-02-24T07:43:20.894Z,2.83
2019-02-24T07:46:24.208Z,4.07
2019-02-24T07:49:28.443Z,1.97
2019-02-24T07:52:31.400Z,3.00
2019-02-24T07:55:34.352Z,1.93
2019-02-24T07:58:37.292Z,1.73
2019-02-24T08:01:42.473Z,2.73
2019-02-24T08:04:46.038Z,2.40
2019-02-24T08:07:49.257Z,2.57
2019-02-24T08:10:52.545Z,2.33
2019-02-24T08:13:55.504Z,2.33
2019-02-24T08:16:59.127Z,2.53
2019-02-24T08:21:01.238Z,2.50
2019-02-24T08:24:04.843Z,3.10
2019-02-24T08:27:07.814Z,2.47
2019-02-24T08:30:10.872Z,2.87
2019-02-24T08:33:13.916Z,2.20
2019-02-24T08:36:17.768Z,2.40
2019-02-24T08:39:20.703Z,4.77
2019-02-24T08:42:25.080Z,2.90
2019-02-24T08:45:28.024Z,3.70
2019-02-24T08:48:31.183Z,2.60
2019-02-24T08:51:35.164Z,4.00
2019-02-24T08:54:38.113Z,3.20
2019-02-24T08:57:41.382Z,4.27
2019-02-24T09:00:50.699Z,3.67
2019-02-24T09:03:50.067Z,3.33
2019-02-24T09:06:53.022Z,2.87
2019-02-24T09:09:56.544Z,2.80
2019-02-24T09:13:00.063Z,3.40
2019-02-24T09:16:03.327Z,3.23
2019-02-24T09:19:06.365Z,3.07
2019-02-24T09:22:09.349Z,2.70
2019-02-24T09:25:13.108Z,2.80
2019-02-24T09:28:16.157Z,2.93
2019-02-24T09:31:19.209Z,2.40
2019-02-24T09:34:22.443Z,2.10
2019-02-24T09:37:26.728Z,2.47
2019-02-24T09:40:29.667Z,3.50
2019-02-24T09:43:33.183Z,2.37
2019-02-24T09:46:36.501Z,2.43
2019-02-24T09:49:39.452Z,1.93
2019-02-24T09:52:42.674Z,2.20
2019-02-24T09:55:46.550Z,2.40
2019-02-24T09:58:49.521Z,2.40
2019-02-24T10:01:52.825Z,1.87
2019-02-24T10:04:56.122Z,1.73
2019-02-24T10:07:59.637Z,2.50
2019-02-24T10:11:03.202Z,2.13
2019-02-24T10:14:06.734Z,2.10
2019-02-24T10:17:09.712Z,2.10
2019-02-24T10:20:12.812Z,2.00
2019-02-24T10:23:16.068Z,2.23
2019-02-24T10:26:19.018Z,2.07
2019-02-24T10:29:22.267Z,1.67
2019-02-24T10:32:26.127Z,2.27
2019-02-24T10:35:29.645Z,2.47
2019-02-24T10:38:32.695Z,2.03
2019-02-24T10:41:35.636Z,2.20
2019-02-24T10:44:38.883Z,1.90
2019-02-24T10:47:42.159Z,2.80
2019-02-24T10:50:45.678Z,2.40
2019-02-24T10:53:48.948Z,3.57
2019-02-24T10:56:52.444Z,10.83
2019-02-24T10:59:56.251Z,5.03
2019-02-24T11:02:59.728Z,3.83
2019-02-24T11:06:02.691Z,3.13
2019-02-24T11:09:06.416Z,2.30
2019-02-24T11:12:09.826Z,1.93
2019-02-24T11:15:13.296Z,2.00
2019-02-24T11:18:16.625Z,2.83
2019-02-24T11:21:19.841Z,5.07
2019-02-24T11:24:22.902Z,2.97
2019-02-24T11:27:25.860Z,2.37
2019-02-24T11:30:29.235Z,1.70
2019-02-24T11:33:32.272Z,1.87
2019-02-24T11:36:35.791Z,1.37
2019-02-24T11:39:38.758Z,1.33
2019-02-24T11:42:41.962Z,1.80
2019-02-24T11:45:44.941Z,1.93
2019-02-24T11:48:48.163Z,1.33
2019-02-24T11:51:51.154Z,1.33
2019-02-24T11:54:54.985Z,1.30
2019-02-24T11:57:58.288Z,2.43
2019-02-24T12:01:01.840Z,1.70
2019-02-24T12:04:05.318Z,1.90
2019-02-24T12:07:08.900Z,1.43
2019-02-24T12:10:12.247Z,2.03
2019-02-24T12:13:15.308Z,1.90
2019-02-24T12:16:19.140Z,2.10
2019-02-24T12:19:22.792Z,1.23
2019-02-24T12:22:25.855Z,1.40
2019-02-24T12:25:29.111Z,1.90
2019-02-24T12:28:32.388Z,1.70
2019-02-24T12:31:36.342Z,1.40
2019-02-24T12:34:39.576Z,1.20
2019-02-24T12:37:42.843Z,1.40
2019-02-24T12:40:46.087Z,1.10
2019-02-24T12:43:49.403Z,0.90
2019-02-24T12:46:52.372Z,1.53
2019-02-24T12:50:02.915Z,1.70
2019-02-24T12:53:01.302Z,1.63
2019-02-24T12:56:04.602Z,1.53
2019-02-24T12:59:08.177Z,1.30
2019-02-24T13:02:11.239Z,1.67
2019-02-24T13:05:14.455Z,1.20
2019-02-24T13:08:17.560Z,1.53
2019-02-24T13:11:21.530Z,1.50
2019-02-24T13:14:24.795Z,1.43
2019-02-24T13:17:28.037Z,1.57
2019-02-24T13:20:31.081Z,1.77
2019-02-24T13:23:35.305Z,1.03
2019-02-24T13:26:38.544Z,1.37
2019-02-24T13:29:41.515Z,2.00
2019-02-24T13:32:44.755Z,1.20
2019-02-24T13:35:47.815Z,1.27
2019-02-24T13:38:51.083Z,1.47
2019-02-24T13:41:54.318Z,1.20
2019-02-24T13:44:57.282Z,1.37
2019-02-24T13:48:01.515Z,1.50
2019-02-24T13:51:04.860Z,1.23
2019-02-24T13:54:07.819Z,1.67
2019-02-24T13:57:11.121Z,1.37
2019-02-24T14:00:15.202Z,1.30
2019-02-24T14:03:18.527Z,1.30
2019-02-24T14:06:21.735Z,1.30
2019-02-24T14:09:24.983Z,1.43
2019-02-24T14:12:27.916Z,1.20
2019-02-24T14:15:31.186Z,1.53
2019-02-24T14:18:34.726Z,1.80
2019-02-24T14:21:38.529Z,1.13
2019-02-24T14:24:41.521Z,1.57
2019-02-24T14:27:44.488Z,1.30
2019-02-24T14:30:47.741Z,1.83
2019-02-24T14:33:50.731Z,1.17
2019-02-24T14:36:53.946Z,1.27
2019-02-24T14:39:57.281Z,1.80
2019-02-24T14:43:00.256Z,1.80
2019-02-24T14:46:03.763Z,1.70
2019-02-24T14:49:06.831Z,1.33
2019-02-24T14:52:10.520Z,1.30
2019-02-24T14:55:13.880Z,1.27
2019-02-24T14:58:17.203Z,1.27
2019-02-24T15:01:20.234Z,1.23
2019-02-24T15:04:23.344Z,1.67
2019-02-24T15:07:26.416Z,1.40
2019-02-24T15:10:29.971Z,1.40
2019-02-24T15:13:33.234Z,1.70
2019-02-24T15:16:36.218Z,2.30
2019-02-24T15:19:39.779Z,1.60
2019-02-24T15:22:43.934Z,2.10
2019-02-24T15:25:47.247Z,1.63
2019-02-24T15:28:50.531Z,2.30
2019-02-24T15:31:53.757Z,1.60
2019-02-24T15:34:57.436Z,1.43
2019-02-24T15:38:00.753Z,1.80
2019-02-24T15:41:03.723Z,2.63
2019-02-24T15:44:06.675Z,1.50
2019-02-24T15:47:09.660Z,1.67
2019-02-24T15:50:12.832Z,1.10
2019-02-24T15:53:16.406Z,2.33
2019-02-24T15:56:19.403Z,1.23
2019-02-24T15:59:23.824Z,1.70
2019-02-24T16:02:26.767Z,1.10
2019-02-24T16:05:30.023Z,1.60
2019-02-24T16:08:33.240Z,1.90
2019-02-24T16:11:37.081Z,1.40
2019-02-24T16:14:40.314Z,1.30
2019-02-24T16:17:43.879Z,1.57
2019-02-24T16:20:47.189Z,1.77
2019-02-24T16:23:50.153Z,1.60
2019-02-24T16:26:53.401Z,1.60
2019-02-24T16:29:56.929Z,1.63
2019-02-24T16:32:59.877Z,1.10
2019-02-24T16:36:03.458Z,2.63
2019-02-24T16:39:06.444Z,1.27
2019-02-24T16:42:11.014Z,3.50
2019-02-24T16:45:14.242Z,1.20
2019-02-24T16:48:18.236Z,2.30
2019-02-24T16:51:21.470Z,1.73
2019-02-24T16:54:24.412Z,1.40
2019-02-24T16:57:27.364Z,1.00
2019-02-24T17:00:31.263Z,1.50
2019-02-24T17:03:34.829Z,1.30
2019-02-24T17:06:38.219Z,1.70
2019-02-24T17:09:41.986Z,1.30
2019-02-24T17:12:45.273Z,1.20
2019-02-24T17:15:48.258Z,1.57
2019-02-24T17:18:51.796Z,1.60
2019-02-24T17:21:54.812Z,1.53
2019-02-24T17:24:58.056Z,1.57
2019-02-24T17:28:01.307Z,2.00
2019-02-24T17:31:04.381Z,2.10
2019-02-24T17:34:07.352Z,1.50
2019-02-24T17:37:19.682Z,1.40
2019-02-24T17:40:16.620Z,1.20
2019-02-24T17:43:19.640Z,1.40
2019-02-24T17:46:23.180Z,1.73
2019-02-24T17:49:26.429Z,1.87
2019-02-24T17:52:29.836Z,2.53
2019-02-24T17:55:33.438Z,2.20
2019-02-24T17:58:36.395Z,1.80
2019-02-24T18:01:39.927Z,2.07
2019-02-24T18:04:43.198Z,1.57
2019-02-24T18:07:46.171Z,2.60
2019-02-24T18:10:49.146Z,2.27
2019-02-24T18:13:52.521Z,2.30
2019-02-24T18:16:55.955Z,2.40
2019-02-24T18:19:59.235Z,2.10
2019-02-24T18:23:02.228Z,2.80
2019-02-24T18:26:06.499Z,2.50
2019-02-24T18:29:09.871Z,2.53
2019-02-24T18:32:13.160Z,3.30
2019-02-24T18:35:16.496Z,3.20
2019-02-24T18:38:19.705Z,3.40
2019-02-24T18:41:23.205Z,2.93
2019-02-24T18:44:26.165Z,4.37
2019-02-24T18:47:30.026Z,2.53
2019-02-24T18:50:32.967Z,3.27
2019-02-24T18:53:36.212Z,2.67
2019-02-24T18:56:39.485Z,3.00
2019-02-24T18:59:43.000Z,4.50
2019-02-24T19:02:46.530Z,4.70
2019-02-24T19:05:50.124Z,3.90
2019-02-24T19:08:53.371Z,3.60
2019-02-24T19:11:56.310Z,3.20
2019-02-24T19:14:59.561Z,4.17
2019-02-24T19:18:02.575Z,3.30
2019-02-24T19:21:05.538Z,3.50
2019-02-24T19:24:08.870Z,3.23
2019-02-24T19:27:13.071Z,3.17
2019-02-24T19:30:16.100Z,3.60
2019-02-24T19:33:19.847Z,3.70
2019-02-24T19:36:22.813Z,2.80
2019-02-24T19:39:25.878Z,3.87
2019-02-24T19:42:29.102Z,3.67
2019-02-24T19:45:32.069Z,3.50
2019-02-24T19:48:41.767Z,3.17
2019-02-24T19:51:40.135Z,3.50
2019-02-24T19:54:43.360Z,3.13
2019-02-24T19:57:46.627Z,3.20
2019-02-24T20:00:49.593Z,3.73
2019-02-24T20:03:52.829Z,2.60
2019-02-24T20:06:55.795Z,2.57
2019-02-24T20:09:59.280Z,3.13
2019-02-24T20:13:02.527Z,2.30
2019-02-24T20:16:06.095Z,2.30
2019-02-24T20:19:09.385Z,2.90
2019-02-24T20:22:12.981Z,3.00
2019-02-24T20:25:16.075Z,2.50
2019-02-24T20:28:19.013Z,2.47
2019-02-24T20:31:21.972Z,2.30
2019-02-24T20:34:25.967Z,2.63
2019-02-24T20:37:29.369Z,2.47
2019-02-24T20:40:33.435Z,3.03
2019-02-24T20:43:36.663Z,3.27
2019-02-24T20:46:39.921Z,2.87
2019-02-24T20:49:43.691Z,2.73
2019-02-24T20:52:46.977Z,3.17
2019-02-24T20:55:49.939Z,3.37
2019-02-24T20:58:53.164Z,3.27
2019-02-24T21:01:56.710Z,2.60
2019-02-24T21:05:00.567Z,2.80
2019-02-24T21:08:03.876Z,2.40
2019-02-24T21:11:07.261Z,2.97
2019-02-24T21:14:10.481Z,2.80
2019-02-24T21:17:13.780Z,2.13
2019-02-24T21:20:19.526Z,1.90
2019-02-24T21:23:22.842Z,1.83
2019-02-24T21:26:25.824Z,2.10
2019-02-24T21:29:29.406Z,1.80
2019-02-24T21:32:32.976Z,2.30
2019-02-24T21:35:36.191Z,2.53
2019-02-24T21:38:39.984Z,2.20
2019-02-24T21:41:43.011Z,2.00
2019-02-24T21:44:46.079Z,1.53
2019-02-24T21:47:49.293Z,1.90
2019-02-24T21:50:52.529Z,2.03
2019-02-24T21:53:55.670Z,1.20
2019-02-24T21:57:00.292Z,1.50
2019-02-24T22:00:06.113Z,1.70
2019-02-24T22:03:09.869Z,1.77
2019-02-24T22:06:13.917Z,1.87
2019-02-24T22:09:17.605Z,1.70
2019-02-24T22:12:20.731Z,2.07
2019-02-24T22:15:23.860Z,2.10
2019-02-24T22:18:26.876Z,1.40
2019-02-24T22:21:29.847Z,1.93
2019-02-24T22:24:33.361Z,1.43
2019-02-24T22:27:36.414Z,1.80
2019-02-24T22:30:39.656Z,1.60
2019-02-24T22:33:43.234Z,1.60
2019-02-24T22:36:46.183Z,2.37
2019-02-24T22:39:49.153Z,1.80
2019-02-24T22:42:52.105Z,1.47
2019-02-24T22:45:55.066Z,2.20
2019-02-24T22:48:58.040Z,1.43
2019-02-24T22:52:01.320Z,1.97
2019-02-24T22:55:05.017Z,1.50
2019-02-24T22:58:08.229Z,1.57
2019-02-24T23:01:19.732Z,1.60
2019-02-24T23:04:24.109Z,1.60
2019-02-24T23:07:27.343Z,1.90
2019-02-24T23:10:30.296Z,2.03
2019-02-24T23:13:33.233Z,2.00
2019-02-24T23:16:36.582Z,1.97
2019-02-24T23:19:39.865Z,2.17
2019-02-24T23:22:43.115Z,2.00
2019-02-24T23:25:46.089Z,1.60
2019-02-24T23:28:50.773Z,1.40
2019-02-24T23:31:54.070Z,1.90
2019-02-24T23:34:57.583Z,1.80
2019-02-24T23:38:01.183Z,1.97
2019-02-24T23:41:04.824Z,2.20
2019-02-24T23:44:07.866Z,2.10
2019-02-24T23:47:10.929Z,1.57
2019-02-24T23:50:14.250Z,1.80
2019-02-24T23:53:18.082Z,1.93
2019-02-24T23:56:21.048Z,2.00
2019-02-24T23:59:24.270Z,2.23
